Time;durP1;ratioP1;P1;durP2;ratioP2;P2;SDS_P1;SDS_P2;PMS_P1;PMS_P2;Temp;Humidity;BMP_temperature;BMP_pressure;BME280_temperature;BME280_humidity;BME280_pressure;Samples;Min_cycle;Max_cycle;Signal;HPM_P1;HPM_P2
2022/10/13 00:00:03;;;;;;;12.07;8.23;;;13.80;74.10;13.90;96963.00;;;;5029982;28;20276;-79
2022/10/13 00:02:31;;;;;;;8.67;7.87;;;13.80;74.10;13.80;96957.00;;;;5038373;28;20250;-81
2022/10/13 00:05:00;;;;;;;10.43;7.63;;;13.80;74.10;13.80;96958.00;;;;5036782;28;20247;-80
2022/10/13 00:07:30;;;;;;;11.20;7.43;;;13.80;74.00;13.80;96961.00;;;;5034898;28;20190;-81
2022/10/13 00:10:00;;;;;;;8.57;7.33;;;13.70;74.00;13.70;96972.00;;;;5036309;28;20568;-81
2022/10/13 00:12:28;;;;;;;8.40;7.53;;;13.70;74.80;13.70;96963.00;;;;5035132;28;20213;-79
2022/10/13 00:14:57;;;;;;;8.53;7.60;;;13.70;74.10;13.70;96965.00;;;;5029994;28;20247;-80
2022/10/13 00:17:27;;;;;;;14.37;7.70;;;13.70;74.10;13.60;96970.00;;;;5032985;28;20284;-80
2022/10/13 00:19:55;;;;;;;10.03;7.70;;;13.60;74.00;13.60;96972.00;;;;5036319;28;20575;-80
2022/10/13 00:22:25;;;;;;;9.90;7.63;;;13.60;73.90;13.60;96968.00;;;;5035359;28;20217;-79
2022/10/13 00:24:56;;;;;;;8.90;7.10;;;13.60;74.00;13.60;96971.00;;;;5031887;28;20284;-82
2022/10/13 00:27:28;;;;;;;10.67;7.57;;;13.50;73.90;13.50;96964.00;;;;5036500;28;20216;-80
2022/10/13 00:29:58;;;;;;;9.87;7.40;;;13.50;73.90;13.50;96962.00;;;;5036501;28;20264;-80
2022/10/13 00:32:32;;;;;;;9.30;7.53;;;13.50;74.00;13.50;96959.00;;;;5035821;28;20243;-81
2022/10/13 00:35:00;;;;;;;10.30;7.80;;;13.50;74.00;13.40;96966.00;;;;5035665;28;20744;-81
2022/10/13 00:37:27;;;;;;;8.53;7.50;;;13.40;74.10;13.40;96969.00;;;;5033139;28;20232;-81
2022/10/13 00:39:57;;;;;;;9.67;7.90;;;13.40;74.10;13.40;96974.00;;;;5036002;28;20560;-81
2022/10/13 00:42:30;;;;;;;8.70;7.10;;;13.40;74.10;13.40;96968.00;;;;5035867;28;20673;-82
2022/10/13 00:45:09;;;;;;;8.07;7.27;;;13.40;74.10;13.40;96968.00;;;;5027954;28;20228;-81
2022/10/13 00:47:42;;;;;;;11.43;6.87;;;13.40;74.20;13.40;96962.00;;;;5036802;28;20548;-80
2022/10/13 00:50:16;;;;;;;10.10;7.10;;;13.30;74.20;13.30;96966.00;;;;5036735;28;20236;-81
2022/10/13 00:52:44;;;;;;;9.77;6.97;;;13.30;74.30;13.30;96964.00;;;;5035502;28;20217;-82
2022/10/13 00:55:17;;;;;;;8.33;7.43;;;13.30;74.40;13.30;96955.00;;;;5034563;28;20221;-81
2022/10/13 00:57:53;;;;;;;9.97;7.20;;;13.30;74.60;13.30;96963.00;;;;5037214;28;20225;-81
2022/10/13 01:00:22;;;;;;;7.43;6.70;;;13.30;74.70;13.30;96967.00;;;;5031426;28;20230;-81
2022/10/13 01:02:49;;;;;;;8.73;7.03;;;13.30;74.80;13.30;96963.00;;;;5020426;28;20221;-81
2022/10/13 01:05:22;;;;;;;9.33;6.90;;;13.20;74.90;13.30;96963.00;;;;5025736;28;20256;-80
2022/10/13 01:07:54;;;;;;;11.53;7.17;;;13.20;75.00;13.30;96961.00;;;;5034988;28;20229;-79
2022/10/13 01:10:42;;;;;;;8.63;7.53;;;13.20;75.30;13.30;96956.00;;;;5036473;28;20581;-80
2022/10/13 01:13:26;;;;;;;11.73;7.93;;;13.30;75.60;13.30;96968.00;;;;5035841;28;20225;-81
2022/10/13 01:16:08;;;;;;;13.53;7.77;;;13.30;75.60;13.30;96967.00;;;;5028825;28;20689;-82
2022/10/13 01:18:55;;;;;;;17.23;7.90;;;13.30;75.70;13.40;96965.00;;;;5036659;28;20221;-81
2022/10/13 01:21:33;;;;;;;16.50;8.33;;;13.20;75.90;13.40;96964.00;;;;5066306;22;20280;-85
2022/10/13 01:24:47;;;;;;;13.27;8.20;;;13.30;76.10;13.40;96968.00;;;;5043666;28;20231;-85
2022/10/13 01:28:00;;;;;;;16.40;8.23;;;13.30;76.80;13.40;96965.00;;;;5045312;28;20216;-85
2022/10/13 01:30:33;;;;;;;10.33;7.20;;;13.30;76.80;13.40;96963.00;;;;5047099;28;20649;-85
2022/10/13 01:33:35;;;;;;;12.10;7.53;;;13.30;76.70;13.30;96960.00;;;;5052219;28;20601;-84
2022/10/13 01:36:19;;;;;;;18.00;7.93;;;13.30;77.50;13.30;96959.00;;;;5050829;28;20245;-85
2022/10/13 01:38:55;;;;;;;9.33;7.73;;;13.20;77.20;13.30;96959.00;;;;5052508;28;20228;-85
2022/10/13 01:41:33;;;;;;;13.83;7.93;;;13.20;77.20;13.30;96956.00;;;;5051810;28;20219;-85
2022/10/13 01:44:11;;;;;;;12.47;8.67;;;13.20;77.30;13.40;96956.00;;;;5037433;28;20189;-85
2022/10/13 01:46:47;;;;;;;11.37;7.90;;;13.20;77.40;13.40;96949.00;;;;5051542;28;20208;-85
2022/10/13 01:49:18;;;;;;;13.07;7.67;;;13.30;77.50;13.40;96951.00;;;;5051518;28;20290;-85
2022/10/13 01:51:47;;;;;;;13.23;8.93;;;13.30;77.50;13.40;96952.00;;;;5043832;28;20216;-85
2022/10/13 01:54:18;;;;;;;17.30;8.50;;;13.30;77.60;13.40;96947.00;;;;5050354;28;20312;-86
2022/10/13 01:56:58;;;;;;;13.40;7.83;;;13.30;77.70;13.40;96953.00;;;;5050180;28;20201;-85
2022/10/13 01:59:31;;;;;;;12.43;7.97;;;13.30;77.80;13.40;96950.00;;;;5050178;28;20228;-85
2022/10/13 02:02:15;;;;;;;12.80;8.43;;;13.30;77.70;13.40;96944.00;;;;5050209;28;20216;-85
2022/10/13 02:05:07;;;;;;;13.63;8.70;;;13.30;77.90;13.40;96955.00;;;;5050711;28;20228;-85
2022/10/13 02:07:55;;;;;;;11.50;8.30;;;13.40;78.00;13.50;96956.00;;;;5050029;28;20201;-85
2022/10/13 02:10:43;;;;;;;14.60;8.33;;;13.30;77.90;13.50;96959.00;;;;5050395;28;20196;-85
2022/10/13 02:13:17;;;;;;;11.23;8.23;;;13.40;77.90;13.40;96957.00;;;;5045542;28;20252;-85
2022/10/13 02:16:06;;;;;;;11.23;8.47;;;13.40;77.80;13.50;96953.00;;;;5050555;28;20652;-85
2022/10/13 02:18:38;;;;;;;12.00;8.10;;;13.40;77.90;13.40;96955.00;;;;5051000;28;20566;-85
2022/10/13 02:21:07;;;;;;;10.20;7.60;;;13.40;77.80;13.40;96949.00;;;;5051210;28;20201;-85
2022/10/13 02:23:36;;;;;;;11.30;7.90;;;13.40;77.80;13.40;96957.00;;;;5050824;28;20712;-85
2022/10/13 02:26:07;;;;;;;10.57;7.33;;;13.40;78.60;13.40;96960.00;;;;5049955;28;20205;-85
2022/10/13 02:28:41;;;;;;;8.07;7.27;;;13.40;77.90;13.40;96961.00;;;;5051082;28;20596;-85
2022/10/13 02:31:11;;;;;;;11.30;7.63;;;13.40;77.90;13.40;96963.00;;;;5050837;28;20279;-85
2022/10/13 02:33:45;;;;;;;11.50;8.20;;;13.40;77.90;13.40;96958.00;;;;5050896;28;20252;-85
2022/10/13 02:36:14;;;;;;;13.20;7.97;;;13.40;78.00;13.40;96956.00;;;;5049770;28;20232;-85
2022/10/13 02:38:47;;;;;;;9.77;7.93;;;13.40;78.00;13.50;96960.00;;;;5050845;28;20284;-84
2022/10/13 02:41:17;;;;;;;11.33;7.67;;;13.40;78.10;13.50;96951.00;;;;5053112;28;20224;-84
2022/10/13 02:43:44;;;;;;;12.43;7.50;;;13.40;78.10;13.50;96952.00;;;;5053383;28;20266;-84
2022/10/13 02:46:14;;;;;;;8.80;7.87;;;13.40;78.20;13.50;96952.00;;;;5053117;28;20193;-84
2022/10/13 02:48:43;;;;;;;9.30;8.30;;;13.40;78.20;13.50;96943.00;;;;5053305;28;20300;-84
2022/10/13 02:51:13;;;;;;;10.63;8.03;;;13.40;78.30;13.60;96940.00;;;;5051460;28;20296;-84
2022/10/13 02:53:40;;;;;;;10.47;7.37;;;13.40;78.20;13.60;96944.00;;;;5049907;28;20278;-84
2022/10/13 02:56:09;;;;;;;11.83;7.27;;;13.40;78.20;13.60;96940.00;;;;5049988;28;20641;-84
2022/10/13 02:58:37;;;;;;;10.03;7.80;;;13.50;78.30;13.60;96940.00;;;;5053478;28;20275;-84
2022/10/13 03:01:08;;;;;;;11.20;7.07;;;13.50;78.30;13.60;96940.00;;;;5053852;28;20228;-84
2022/10/13 03:03:40;;;;;;;11.73;7.53;;;13.50;78.30;13.60;96934.00;;;;5056251;28;20244;-84
2022/10/13 03:06:09;;;;;;;8.13;7.13;;;13.50;78.20;13.60;96934.00;;;;5057295;28;20201;-84
2022/10/13 03:08:42;;;;;;;11.10;7.33;;;13.50;77.90;13.60;96932.00;;;;5055659;28;20629;-84
2022/10/13 03:11:09;;;;;;;7.83;7.03;;;13.50;77.70;13.60;96930.00;;;;5054164;28;20574;-84
2022/10/13 03:13:41;;;;;;;7.97;7.07;;;13.50;77.40;13.50;96926.00;;;;5056810;28;20209;-84
2022/10/13 03:16:17;;;;;;;9.30;7.50;;;13.50;77.20;13.50;96936.00;;;;5055526;28;20197;-84
2022/10/13 03:18:47;;;;;;;10.10;7.10;;;13.50;77.00;13.50;96931.00;;;;5057844;28;21315;-84
2022/10/13 03:21:15;;;;;;;10.07;8.20;;;13.50;76.90;13.50;96933.00;;;;5057396;28;20239;-84
2022/10/13 03:23:47;;;;;;;9.80;7.13;;;13.40;76.80;13.50;96932.00;;;;5057314;28;20235;-84
2022/10/13 03:26:24;;;;;;;6.90;6.20;;;13.40;76.80;13.40;96925.00;;;;5057948;28;20200;-84
2022/10/13 03:28:52;;;;;;;8.03;6.53;;;13.40;76.80;13.40;96927.00;;;;5057503;28;20224;-84
2022/10/13 03:31:19;;;;;;;8.60;7.70;;;13.40;76.70;13.40;96922.00;;;;5056476;28;20228;-84
2022/10/13 03:33:46;;;;;;;9.60;8.10;;;13.30;76.70;13.40;96929.00;;;;5055789;28;20220;-84
2022/10/13 03:36:16;;;;;;;9.80;7.13;;;13.40;76.80;13.40;96923.00;;;;5057149;28;20227;-84
2022/10/13 03:38:46;;;;;;;8.63;7.73;;;13.30;76.80;13.40;96932.00;;;;5057413;28;20194;-84
2022/10/13 03:41:16;;;;;;;7.27;6.57;;;13.30;77.10;13.40;96940.00;;;;5059726;28;20205;-84
2022/10/13 03:43:47;;;;;;;13.43;6.80;;;13.30;77.30;13.40;96935.00;;;;5058530;28;20201;-84
2022/10/13 03:46:23;;;;;;;7.80;5.40;;;13.30;77.30;13.40;96934.00;;;;5059106;28;20208;-84
2022/10/13 03:48:50;;;;;;;7.37;5.23;;;13.30;77.60;13.40;96941.00;;;;5058543;28;20220;-84
2022/10/13 03:51:24;;;;;;;4.90;4.50;;;13.30;77.80;13.40;96942.00;;;;5056287;28;20209;-84
2022/10/13 03:53:55;;;;;;;7.33;4.50;;;13.30;77.90;13.50;96943.00;;;;5055533;28;20636;-84
2022/10/13 03:56:30;;;;;;;4.70;4.30;;;13.30;77.90;13.50;96951.00;;;;5055572;28;20201;-84
2022/10/13 03:59:04;;;;;;;8.63;5.03;;;13.40;78.10;13.50;96946.00;;;;5040316;28;20192;-84
2022/10/13 04:01:34;;;;;;;5.07;4.67;;;13.40;78.10;13.50;96950.00;;;;5054686;28;20196;-84
2022/10/13 04:11:16;;;;;;;7.97;3.40;;;13.60;78.30;13.60;96943.00;;;;4991383;28;20213;-84
2022/10/13 04:18:06;;;;;;;4.90;3.47;;;13.50;78.40;13.60;96945.00;;;;4899149;29;20208;-83
2022/10/13 04:20:50;;;;;;;4.17;3.80;;;13.50;78.10;13.60;96947.00;;;;4955135;28;20216;-84
2022/10/13 04:23:57;;;;;;;5.00;4.60;;;13.50;78.00;13.60;96943.00;;;;5052398;28;20220;-83
2022/10/13 04:26:51;;;;;;;4.73;4.33;;;13.50;78.20;13.60;96948.00;;;;5048609;28;20199;-83
2022/10/13 04:29:50;;;;;;;4.80;4.47;;;13.50;78.00;13.60;96937.00;;;;5056838;28;20634;-83
2022/10/13 04:32:18;;;;;;;3.90;3.70;;;13.50;78.10;13.60;96942.00;;;;5053876;28;20220;-84
2022/10/13 04:34:48;;;;;;;4.10;3.80;;;13.50;77.90;13.60;96957.00;;;;5056314;28;20311;-84
2022/10/13 04:37:23;;;;;;;4.27;3.97;;;13.50;77.90;13.70;96957.00;;;;5054071;28;20564;-85
2022/10/13 04:39:52;;;;;;;3.70;3.50;;;13.50;77.90;13.70;96950.00;;;;5044512;28;20283;-84
2022/10/13 04:42:29;;;;;;;3.83;3.63;;;13.60;78.00;13.70;96949.00;;;;5054592;28;20693;-83
2022/10/13 04:44:56;;;;;;;3.47;3.27;;;13.60;77.90;13.70;96950.00;;;;5052019;28;20200;-83
2022/10/13 04:47:23;;;;;;;3.90;3.60;;;13.60;78.40;13.70;96956.00;;;;5053551;28;20292;-83
2022/10/13 04:49:50;;;;;;;3.87;3.57;;;13.60;77.70;13.70;96951.00;;;;5053843;28;20665;-83
2022/10/13 04:52:17;;;;;;;4.07;3.77;;;13.60;77.60;13.70;96953.00;;;;5054653;28;20228;-84
2022/10/13 04:54:45;;;;;;;4.13;3.90;;;13.60;77.50;13.70;96959.00;;;;5055292;28;21709;-84
2022/10/13 04:57:14;;;;;;;4.97;4.50;;;13.60;77.50;13.70;96955.00;;;;5055137;28;20207;-84
2022/10/13 04:59:41;;;;;;;5.03;4.63;;;13.60;77.60;13.70;96947.00;;;;5054661;28;20188;-84
2022/10/13 05:02:14;;;;;;;4.50;4.10;;;13.60;77.60;13.70;96944.00;;;;5054012;28;20303;-85
2022/10/13 05:04:44;;;;;;;4.40;4.10;;;13.60;77.60;13.70;96946.00;;;;5051859;28;20242;-87
2022/10/13 05:07:11;;;;;;;4.30;3.90;;;13.60;77.60;13.70;96944.00;;;;5052868;28;20224;-85
2022/10/13 05:09:57;;;;;;;4.83;4.37;;;13.60;77.50;13.70;96938.00;;;;5054473;28;20630;-85
2022/10/13 05:12:28;;;;;;;4.43;4.13;;;13.60;77.50;13.70;96937.00;;;;5052562;28;20224;-85
2022/10/13 05:14:56;;;;;;;4.27;3.97;;;13.60;77.50;13.70;96937.00;;;;5040794;28;20738;-85
2022/10/13 05:17:29;;;;;;;4.93;4.60;;;13.60;77.50;13.70;96938.00;;;;5055735;28;20196;-85
2022/10/13 05:19:56;;;;;;;4.47;4.07;;;13.60;77.60;13.70;96940.00;;;;5052698;28;20224;-85
2022/10/13 05:22:31;;;;;;;4.40;4.10;;;13.60;77.60;13.70;96942.00;;;;5051293;28;20217;-87
2022/10/13 05:25:01;;;;;;;5.07;4.67;;;13.60;77.60;13.80;96941.00;;;;5052277;28;20228;-85
2022/10/13 05:27:29;;;;;;;5.07;4.50;;;13.60;77.60;13.80;96944.00;;;;5053301;28;20235;-84
2022/10/13 05:29:59;;;;;;;4.97;4.47;;;13.60;77.60;13.80;96947.00;;;;5052633;28;20220;-85
2022/10/13 05:32:30;;;;;;;4.67;4.27;;;13.60;77.60;13.80;96945.00;;;;5052067;28;20324;-85
2022/10/13 05:34:57;;;;;;;5.27;4.77;;;13.70;77.80;13.90;96947.00;;;;5043601;28;20279;-84
2022/10/13 05:37:26;;;;;;;4.83;4.47;;;13.70;77.80;13.90;96947.00;;;;5050183;28;20569;-84
2022/10/13 05:39:53;;;;;;;5.13;4.73;;;13.70;77.80;13.90;96945.00;;;;5052976;28;20280;-83
2022/10/13 05:42:24;;;;;;;5.73;5.30;;;13.70;77.70;13.90;96949.00;;;;5053498;28;20217;-84
2022/10/13 05:44:57;;;;;;;4.80;4.50;;;13.70;77.70;14.00;96951.00;;;;5038957;28;20214;-83
2022/10/13 05:47:30;;;;;;;4.50;4.20;;;13.80;77.80;14.00;96954.00;;;;5052869;28;20624;-83
2022/10/13 05:50:02;;;;;;;5.33;4.67;;;13.80;77.80;14.10;96945.00;;;;5039858;28;20284;-83
2022/10/13 05:52:33;;;;;;;5.17;4.77;;;13.80;77.70;14.10;96943.00;;;;5050876;28;20307;-84
2022/10/13 05:55:17;;;;;;;5.00;4.60;;;13.80;77.70;14.10;96955.00;;;;5048371;28;20295;-83
2022/10/13 05:57:55;;;;;;;4.80;4.47;;;13.80;77.70;14.20;96944.00;;;;5052779;28;20224;-82
2022/10/13 06:00:24;;;;;;;5.03;4.63;;;13.90;77.70;14.20;96939.00;;;;5049071;28;20231;-82
2022/10/13 06:03:02;;;;;;;4.93;4.30;;;13.90;77.70;14.20;96938.00;;;;5047669;28;20233;-82
2022/10/13 06:05:32;;;;;;;4.77;4.43;;;13.90;77.70;14.30;96940.00;;;;5047145;28;20192;-82
2022/10/13 06:08:02;;;;;;;4.40;4.10;;;14.00;77.90;14.30;96945.00;;;;5051680;28;20197;-81
2022/10/13 06:10:30;;;;;;;5.30;4.80;;;14.00;77.90;14.30;96949.00;;;;5048937;28;20665;-81
2022/10/13 06:12:57;;;;;;;4.87;4.47;;;14.00;77.80;14.30;96943.00;;;;5050849;28;20334;-82
2022/10/13 06:15:26;;;;;;;4.60;4.30;;;14.00;77.80;14.40;96948.00;;;;5049810;28;20219;-82
2022/10/13 06:17:53;;;;;;;5.00;4.60;;;14.00;77.80;14.40;96947.00;;;;5043105;28;20275;-82
2022/10/13 06:20:22;;;;;;;4.43;4.03;;;14.10;77.80;14.50;96944.00;;;;5044500;28;20216;-81
2022/10/13 06:22:49;;;;;;;4.60;4.30;;;14.10;77.80;14.50;96937.00;;;;5050247;28;20628;-81
2022/10/13 06:25:17;;;;;;;4.40;4.10;;;14.10;77.80;14.50;96953.00;;;;5047781;28;20401;-81
2022/10/13 06:27:44;;;;;;;5.27;4.80;;;14.20;77.70;14.50;96951.00;;;;5051947;28;20196;-81
2022/10/13 06:30:12;;;;;;;4.90;4.53;;;14.20;77.70;14.50;96952.00;;;;5053460;28;20236;-81
2022/10/13 06:32:41;;;;;;;4.63;4.23;;;14.20;77.70;14.60;96954.00;;;;5037211;28;20240;-81
2022/10/13 06:35:14;;;;;;;4.60;4.20;;;14.20;77.80;14.60;96956.00;;;;5050299;28;20231;-82
2022/10/13 06:37:47;;;;;;;4.90;4.50;;;14.30;77.80;14.60;96953.00;;;;5052316;28;20200;-81
2022/10/13 06:40:19;;;;;;;4.90;4.50;;;14.30;77.80;14.60;96954.00;;;;5049992;28;20548;-82
2022/10/13 06:42:53;;;;;;;4.57;4.23;;;14.30;77.80;14.70;96947.00;;;;5053267;28;20213;-81
2022/10/13 06:45:20;;;;;;;5.00;4.50;;;14.30;77.70;14.70;96957.00;;;;5049114;28;20211;-81
2022/10/13 06:47:55;;;;;;;4.60;4.20;;;14.40;77.70;14.70;96954.00;;;;5054986;28;20200;-81
2022/10/13 06:50:25;;;;;;;5.33;4.93;;;14.40;77.80;14.70;96953.00;;;;5053227;28;20220;-81
2022/10/13 06:52:58;;;;;;;4.97;4.57;;;14.40;77.80;14.80;96951.00;;;;5034709;28;20245;-81
2022/10/13 06:55:25;;;;;;;4.60;4.30;;;14.40;77.80;14.80;96953.00;;;;5052917;28;20265;-81
2022/10/13 06:57:52;;;;;;;5.03;4.53;;;14.50;77.90;14.80;96954.00;;;;5053775;28;20224;-82
2022/10/13 07:00:22;;;;;;;5.20;4.70;;;14.50;77.90;14.90;96956.00;;;;5052144;28;20565;-81
2022/10/13 07:02:52;;;;;;;6.40;4.73;;;14.50;78.60;14.90;96960.00;;;;5052800;28;20213;-82
2022/10/13 07:05:19;;;;;;;5.67;5.17;;;14.50;77.90;14.90;96960.00;;;;5051385;28;20264;-82
2022/10/13 07:07:54;;;;;;;5.47;4.97;;;14.60;77.90;14.90;96961.00;;;;5068665;28;20283;-82
2022/10/13 07:10:21;;;;;;;4.83;4.43;;;14.60;77.90;15.00;96965.00;;;;5049461;28;20227;-82
2022/10/13 07:12:48;;;;;;;4.80;4.40;;;14.60;77.90;15.00;96956.00;;;;5054488;28;20233;-82
2022/10/13 07:15:16;;;;;;;4.60;4.20;;;14.60;77.90;15.00;96962.00;;;;5054954;28;20256;-82
2022/10/13 07:17:43;;;;;;;5.20;4.80;;;14.70;77.80;15.10;96957.00;;;;5052335;28;20196;-82
2022/10/13 07:20:12;;;;;;;5.47;4.97;;;14.70;77.80;15.10;96953.00;;;;5092713;22;20246;-85
2022/10/13 07:22:39;;;;;;;4.93;4.53;;;14.70;77.80;15.10;96955.00;;;;5082923;28;20218;-85
2022/10/13 07:25:08;;;;;;;6.73;4.57;;;14.70;77.70;15.10;96953.00;;;;5077080;28;20722;-87
2022/10/13 07:27:37;;;;;;;5.10;4.63;;;14.80;77.70;15.10;96950.00;;;;5079758;28;20202;-88
2022/10/13 07:30:05;;;;;;;5.00;4.60;;;14.80;77.70;15.20;96951.00;;;;5075365;28;20282;-87
2022/10/13 07:32:33;;;;;;;4.90;4.10;;;14.80;77.80;15.20;96950.00;;;;5074972;28;20679;-87
2022/10/13 07:35:00;;;;;;;5.40;4.90;;;14.90;77.90;15.20;96956.00;;;;5074919;28;20282;-87
2022/10/13 07:37:29;;;;;;;5.13;4.77;;;14.90;77.80;15.20;96952.00;;;;5075003;28;20553;-87
2022/10/13 07:39:59;;;;;;;5.10;4.70;;;14.90;77.70;15.30;96954.00;;;;5074677;28;20228;-87
2022/10/13 07:42:26;;;;;;;5.60;4.97;;;15.00;77.80;15.30;96951.00;;;;5075006;28;20206;-87
2022/10/13 07:44:55;;;;;;;5.03;4.63;;;15.00;77.60;15.30;96949.00;;;;5074326;28;20223;-87
2022/10/13 07:47:22;;;;;;;5.13;4.63;;;15.00;77.70;15.30;96941.00;;;;5066049;28;20284;-87
2022/10/13 07:49:49;;;;;;;4.67;4.27;;;15.00;77.80;15.30;96944.00;;;;5067443;28;20633;-87
2022/10/13 07:52:16;;;;;;;4.67;4.27;;;15.10;77.80;15.40;96940.00;;;;5074586;28;20287;-88
2022/10/13 07:54:45;;;;;;;5.37;4.87;;;15.10;77.70;15.40;96942.00;;;;5074550;28;20279;-88
2022/10/13 07:57:12;;;;;;;5.57;5.07;;;15.10;77.80;15.40;96934.00;;;;5078123;28;20219;-87
2022/10/13 07:59:39;;;;;;;5.30;4.80;;;15.20;77.80;15.50;96937.00;;;;5079836;28;20291;-87
2022/10/13 08:02:07;;;;;;;5.20;4.80;;;15.20;77.80;15.50;96931.00;;;;5061863;28;20196;-88
2022/10/13 08:04:35;;;;;;;5.33;4.70;;;15.20;77.80;15.50;96939.00;;;;5074421;28;20219;-88
2022/10/13 08:07:04;;;;;;;5.23;4.83;;;15.30;77.90;15.60;96937.00;;;;5074406;28;20696;-87
2022/10/13 08:09:31;;;;;;;5.03;4.53;;;15.30;77.80;15.60;96935.00;;;;5069476;28;20195;-87
2022/10/13 08:12:00;;;;;;;5.87;5.00;;;15.30;77.70;15.70;96931.00;;;;5067049;28;20220;-89
2022/10/13 08:14:27;;;;;;;5.87;5.17;;;15.30;77.80;15.70;96927.00;;;;5074218;28;20254;-88
2022/10/13 08:16:54;;;;;;;5.30;4.90;;;15.40;77.90;15.80;96928.00;;;;5075836;28;20330;-88
2022/10/13 08:19:25;;;;;;;5.83;5.23;;;15.50;77.90;15.80;96916.00;;;;5073670;28;20219;-89
2022/10/13 08:21:52;;;;;;;6.50;5.10;;;15.50;77.90;15.90;96918.00;;;;5073808;28;20301;-86
2022/10/13 08:24:22;;;;;;;6.67;5.90;;;15.50;77.90;16.00;96915.00;;;;5068144;28;20212;-88
2022/10/13 08:26:50;;;;;;;5.73;5.23;;;15.60;77.90;16.00;96925.00;;;;5054345;28;20676;-88
2022/10/13 08:29:18;;;;;;;6.53;5.70;;;15.60;78.00;16.10;96927.00;;;;5053750;28;20208;-89
2022/10/13 08:31:45;;;;;;;6.27;5.67;;;15.70;78.20;16.20;96925.00;;;;5066324;28;20196;-88
2022/10/13 08:34:13;;;;;;;6.10;5.50;;;15.70;78.10;16.20;96927.00;;;;5073221;28;20649;-88
2022/10/13 08:36:41;;;;;;;6.30;5.13;;;15.80;78.00;16.30;96937.00;;;;5073368;28;20312;-88
2022/10/13 08:39:08;;;;;;;5.70;5.10;;;15.80;78.70;16.40;96945.00;;;;5073548;28;20204;-89
2022/10/13 08:41:40;;;;;;;5.70;5.20;;;15.90;78.00;16.40;96937.00;;;;5073523;28;20206;-89
2022/10/13 08:44:19;;;;;;;9.27;5.70;;;16.00;78.00;16.50;96943.00;;;;5073330;28;20242;-89
2022/10/13 08:47:00;;;;;;;9.17;5.10;;;16.00;78.00;16.50;96948.00;;;;5073362;28;20192;-88
2022/10/13 08:49:27;;;;;;;6.60;5.80;;;16.10;78.10;16.60;96943.00;;;;5073371;28;20307;-89
2022/10/13 08:51:55;;;;;;;6.93;5.00;;;16.10;78.00;16.60;96929.00;;;;5073506;28;20259;-88
2022/10/13 08:54:25;;;;;;;6.87;5.27;;;16.20;78.00;16.70;96932.00;;;;5073247;28;20212;-88
2022/10/13 08:56:53;;;;;;;5.33;4.83;;;16.20;78.00;16.70;96930.00;;;;5080110;28;20299;-88
2022/10/13 08:59:20;;;;;;;6.47;5.13;;;16.30;77.90;16.80;96919.00;;;;5092606;28;20223;-89
2022/10/13 09:01:55;;;;;;;8.17;6.10;;;16.40;77.60;16.80;96920.00;;;;5080046;28;20630;-88
2022/10/13 09:04:30;;;;;;;6.00;5.40;;;16.40;77.60;16.80;96918.00;;;;5071504;28;20229;-88
2022/10/13 09:07:06;;;;;;;6.33;5.73;;;16.50;77.70;16.90;96909.00;;;;5059839;28;20192;-88
2022/10/13 09:09:33;;;;;;;7.17;5.47;;;16.50;77.60;17.00;96919.00;;;;5072027;28;20286;-88
2022/10/13 09:12:01;;;;;;;6.23;5.17;;;16.60;77.70;17.00;96926.00;;;;5067603;28;20625;-86
2022/10/13 09:14:31;;;;;;;6.13;5.47;;;16.60;77.80;17.10;96933.00;;;;5074474;28;20299;-85
2022/10/13 09:17:17;;;;;;;6.33;5.73;;;16.70;77.90;17.20;96922.00;;;;5065358;28;20212;-85
2022/10/13 09:19:56;;;;;;;5.83;5.23;;;16.80;78.00;17.30;96921.00;;;;5072726;28;20271;-85
2022/10/13 09:22:26;;;;;;;7.90;5.17;;;16.80;78.60;17.40;96928.00;;;;5072883;28;20658;-85
2022/10/13 09:25:19;;;;;;;6.03;5.43;;;16.90;77.90;17.40;96920.00;;;;5072413;28;20192;-86
2022/10/13 09:27:50;;;;;;;6.83;6.17;;;17.00;77.70;17.50;96924.00;;;;5072976;28;20235;-86
2022/10/13 09:30:31;;;;;;;6.37;5.67;;;17.00;77.60;17.60;96920.00;;;;5072320;28;20704;-86
2022/10/13 09:33:22;;;;;;;5.97;5.47;;;17.10;77.60;17.60;96907.00;;;;5072524;28;20212;-86
2022/10/13 09:36:06;;;;;;;6.57;5.93;;;17.20;77.60;17.70;96909.00;;;;5072617;28;20265;-86
2022/10/13 09:38:34;;;;;;;7.40;6.57;;;17.20;77.60;17.70;96910.00;;;;5054573;28;20288;-86
2022/10/13 09:41:05;;;;;;;6.97;5.77;;;17.20;77.40;17.80;96914.00;;;;5063361;28;20215;-86
2022/10/13 09:43:35;;;;;;;6.27;5.57;;;17.30;77.50;17.80;96908.00;;;;5072336;28;20300;-85
2022/10/13 09:46:12;;;;;;;6.40;5.67;;;17.40;77.40;17.90;96902.00;;;;5069997;28;20564;-86
2022/10/13 09:48:44;;;;;;;7.77;6.40;;;17.40;77.50;18.00;96904.00;;;;5070060;28;20658;-86
2022/10/13 09:51:33;;;;;;;8.27;6.60;;;17.50;77.60;18.10;96893.00;;;;5065771;28;20704;-86
2022/10/13 09:54:00;;;;;;;6.60;5.90;;;17.60;77.30;18.20;96897.00;;;;5053308;28;20569;-86
2022/10/13 09:56:36;;;;;;;7.60;6.27;;;17.60;77.50;18.30;96905.00;;;;5072384;28;20269;-85
2022/10/13 09:59:16;;;;;;;8.50;6.77;;;17.70;77.60;18.40;96908.00;;;;5072658;28;20271;-86
2022/10/13 10:01:48;;;;;;;7.30;6.43;;;17.80;77.60;18.40;96904.00;;;;5070002;28;20192;-87
2022/10/13 10:04:24;;;;;;;7.73;6.93;;;17.90;77.50;18.50;96908.00;;;;5066714;28;20288;-86
2022/10/13 10:06:51;;;;;;;7.20;6.50;;;17.90;77.30;18.60;96901.00;;;;5070405;28;20207;-86
2022/10/13 10:09:36;;;;;;;6.90;6.23;;;18.00;77.20;18.60;96904.00;;;;5070492;28;20284;-86
2022/10/13 10:12:06;;;;;;;7.60;6.60;;;18.10;77.10;18.70;96895.00;;;;5070589;28;20227;-87
2022/10/13 10:14:36;;;;;;;7.23;6.53;;;18.10;77.20;18.80;96894.00;;;;5074555;28;20307;-86
2022/10/13 10:17:17;;;;;;;9.30;7.00;;;18.20;77.10;18.90;96900.00;;;;5068698;28;20231;-86
2022/10/13 10:19:58;;;;;;;7.67;6.50;;;18.30;76.90;18.90;96901.00;;;;5066576;28;20587;-86
2022/10/13 10:22:37;;;;;;;7.57;6.60;;;18.40;76.70;19.00;96894.00;;;;5061989;28;20625;-86
2022/10/13 10:25:24;;;;;;;7.93;6.60;;;18.50;76.80;19.00;96899.00;;;;5075859;28;20196;-87
2022/10/13 10:28:09;;;;;;;6.53;5.83;;;18.50;76.60;19.10;96897.00;;;;5075622;28;20208;-86
2022/10/13 10:30:48;;;;;;;6.60;5.97;;;18.60;76.80;19.20;96900.00;;;;5073798;28;20200;-86
2022/10/13 10:33:25;;;;;;;7.47;6.50;;;18.70;76.60;19.30;96894.00;;;;5075784;28;20231;-86
2022/10/13 10:36:03;;;;;;;7.00;6.30;;;18.70;76.50;19.30;96895.00;;;;5063579;28;20279;-86
2022/10/13 10:38:43;;;;;;;7.63;6.57;;;18.80;76.20;19.40;96887.00;;;;5061891;28;20282;-86
2022/10/13 10:41:30;;;;;;;9.33;6.17;;;18.80;76.20;19.50;96887.00;;;;5067754;28;20202;-86
2022/10/13 10:44:04;;;;;;;6.87;6.10;;;18.90;76.20;19.50;96889.00;;;;5075213;28;20304;-86
2022/10/13 10:46:38;;;;;;;6.57;5.93;;;19.00;76.30;19.60;96886.00;;;;5065730;28;20196;-86
2022/10/13 10:49:18;;;;;;;8.93;6.47;;;19.00;75.80;19.70;96889.00;;;;5075440;28;20282;-86
2022/10/13 10:51:47;;;;;;;6.63;5.87;;;19.10;75.70;19.70;96883.00;;;;5066671;28;20608;-86
2022/10/13 10:54:31;;;;;;;8.17;6.50;;;19.20;75.80;19.80;96876.00;;;;5075285;28;20325;-86
2022/10/13 10:57:06;;;;;;;6.53;5.57;;;19.20;75.80;19.90;96875.00;;;;5071488;28;20203;-86
2022/10/13 10:59:58;;;;;;;6.80;5.47;;;19.30;76.10;20.00;96867.00;;;;5057643;28;20223;-86
2022/10/13 11:02:49;;;;;;;6.13;5.60;;;19.40;75.50;20.10;96858.00;;;;5072225;28;20223;-86
2022/10/13 11:05:18;;;;;;;8.43;6.40;;;19.50;75.60;20.20;96849.00;;;;5075798;28;20224;-87
2022/10/13 11:07:59;;;;;;;7.40;5.63;;;19.50;75.70;20.20;96850.00;;;;5069354;28;20236;-86
2022/10/13 11:10:29;;;;;;;5.93;5.07;;;19.60;74.70;20.30;96845.00;;;;5073719;28;20218;-86
2022/10/13 11:13:24;;;;;;;6.13;5.53;;;19.60;75.10;20.30;96842.00;;;;5069432;28;20709;-86
2022/10/13 11:15:52;;;;;;;8.37;5.20;;;19.70;73.60;20.30;96847.00;;;;5063766;28;20711;-87
2022/10/13 11:19:04;;;;;;;7.17;6.13;;;19.80;74.30;20.40;96835.00;;;;5075419;28;20227;-86
2022/10/13 11:22:24;;;;;;;7.50;5.60;;;19.80;72.90;20.40;96835.00;;;;5064473;28;20208;-86
2022/10/13 11:25:03;;;;;;;6.87;5.87;;;19.90;72.70;20.40;96820.00;;;;5072209;28;20726;-86
2022/10/13 11:27:44;;;;;;;8.23;5.07;;;19.90;72.40;20.50;96815.00;;;;5068668;28;20212;-85
2022/10/13 11:30:46;;;;;;;7.77;5.10;;;20.00;72.90;20.50;96829.00;;;;5075233;28;20610;-86